sensor_id;sensor_type;location;lat;lon;timestamp;P1;durP1;ratioP1;P2;durP2;ratioP2
49378;SDS011;35254;47.990;-1.608;2022-10-31T00:00:43;6.28;;;1.98;;
49378;SDS011;35254;47.990;-1.608;2022-10-31T00:03:09;11.80;;;1.65;;
49378;SDS011;35254;47.990;-1.608;2022-10-31T00:05:35;4.35;;;1.30;;
49378;SDS011;35254;47.990;-1.608;2022-10-31T00:08:01;4.82;;;1.50;;
49378;SDS011;35254;47.990;-1.608;2022-10-31T00:10:26;10.27;;;1.33;;
49378;SDS011;35254;47.990;-1.608;2022-10-31T00:12:52;7.40;;;1.70;;
49378;SDS011;35254;47.990;-1.608;2022-10-31T00:15:17;7.38;;;1.88;;
49378;SDS011;35254;47.990;-1.608;2022-10-31T00:17:43;12.70;;;1.70;;
49378;SDS011;35254;47.990;-1.608;2022-10-31T00:20:09;10.85;;;1.67;;
49378;SDS011;35254;47.990;-1.608;2022-10-31T00:22:34;15.40;;;1.92;;
49378;SDS011;35254;47.990;-1.608;2022-10-31T00:25:00;17.98;;;5.32;;
49378;SDS011;35254;47.990;-1.608;2022-10-31T00:27:26;16.40;;;6.13;;
49378;SDS011;35254;47.990;-1.608;2022-10-31T00:29:51;9.18;;;2.75;;
49378;SDS011;35254;47.990;-1.608;2022-10-31T00:32:17;10.73;;;2.03;;
49378;SDS011;35254;47.990;-1.608;2022-10-31T00:34:42;7.43;;;1.95;;
49378;SDS011;35254;47.990;-1.608;2022-10-31T00:37:08;12.73;;;1.63;;
49378;SDS011;35254;47.990;-1.608;2022-10-31T00:39:33;6.25;;;1.88;;
49378;SDS011;35254;47.990;-1.608;2022-10-31T00:41:59;12.50;;;1.25;;
49378;SDS011;35254;47.990;-1.608;2022-10-31T00:44:25;5.40;;;1.40;;
49378;SDS011;35254;47.990;-1.608;2022-10-31T00:46:50;13.90;;;2.25;;
49378;SDS011;35254;47.990;-1.608;2022-10-31T00:49:16;2.45;;;1.10;;
49378;SDS011;35254;47.990;-1.608;2022-10-31T00:51:41;4.90;;;1.60;;
49378;SDS011;35254;47.990;-1.608;2022-10-31T00:54:07;8.02;;;1.40;;
49378;SDS011;35254;47.990;-1.608;2022-10-31T00:56:33;13.48;;;1.50;;
49378;SDS011;35254;47.990;-1.608;2022-10-31T00:58:58;7.00;;;1.15;;
49378;SDS011;35254;47.990;-1.608;2022-10-31T01:01:24;14.95;;;2.60;;
49378;SDS011;35254;47.990;-1.608;2022-10-31T01:03:50;6.60;;;1.40;;
49378;SDS011;35254;47.990;-1.608;2022-10-31T01:06:15;14.02;;;2.25;;
49378;SDS011;35254;47.990;-1.608;2022-10-31T01:08:41;8.27;;;1.63;;
49378;SDS011;35254;47.990;-1.608;2022-10-31T01:11:11;6.13;;;1.38;;
49378;SDS011;35254;47.990;-1.608;2022-10-31T01:13:38;9.52;;;1.27;;
49378;SDS011;35254;47.990;-1.608;2022-10-31T01:16:05;9.48;;;1.40;;
49378;SDS011;35254;47.990;-1.608;2022-10-31T01:18:32;8.93;;;1.20;;
49378;SDS011;35254;47.990;-1.608;2022-10-31T01:21:05;5.13;;;1.13;;
49378;SDS011;35254;47.990;-1.608;2022-10-31T01:23:33;8.25;;;1.60;;
49378;SDS011;35254;47.990;-1.608;2022-10-31T01:26:03;4.88;;;1.65;;
49378;SDS011;35254;47.990;-1.608;2022-10-31T01:28:31;22.75;;;1.63;;
49378;SDS011;35254;47.990;-1.608;2022-10-31T01:31:07;7.40;;;1.27;;
49378;SDS011;35254;47.990;-1.608;2022-10-31T01:33:34;5.50;;;1.00;;
49378;SDS011;35254;47.990;-1.608;2022-10-31T01:36:00;15.27;;;1.45;;
49378;SDS011;35254;47.990;-1.608;2022-10-31T01:38:26;2.85;;;1.35;;
49378;SDS011;35254;47.990;-1.608;2022-10-31T01:40:52;6.10;;;1.10;;
49378;SDS011;35254;47.990;-1.608;2022-10-31T01:43:18;8.43;;;1.55;;
49378;SDS011;35254;47.990;-1.608;2022-10-31T01:45:46;5.72;;;1.13;;
49378;SDS011;35254;47.990;-1.608;2022-10-31T01:48:18;10.35;;;1.55;;
49378;SDS011;35254;47.990;-1.608;2022-10-31T01:50:46;9.63;;;1.50;;
49378;SDS011;35254;47.990;-1.608;2022-10-31T01:53:14;7.45;;;1.65;;
49378;SDS011;35254;47.990;-1.608;2022-10-31T01:55:42;13.27;;;1.60;;
49378;SDS011;35254;47.990;-1.608;2022-10-31T01:58:13;9.23;;;1.17;;
49378;SDS011;35254;47.990;-1.608;2022-10-31T02:00:41;5.50;;;1.15;;
49378;SDS011;35254;47.990;-1.608;2022-10-31T02:03:10;5.25;;;2.38;;
49378;SDS011;35254;47.990;-1.608;2022-10-31T02:05:36;11.55;;;1.73;;
49378;SDS011;35254;47.990;-1.608;2022-10-31T02:10:32;7.72;;;1.67;;
49378;SDS011;35254;47.990;-1.608;2022-10-31T02:13:01;3.33;;;1.02;;
49378;SDS011;35254;47.990;-1.608;2022-10-31T02:15:28;5.05;;;1.45;;
49378;SDS011;35254;47.990;-1.608;2022-10-31T02:17:55;6.53;;;1.77;;
49378;SDS011;35254;47.990;-1.608;2022-10-31T02:20:22;12.05;;;1.17;;
49378;SDS011;35254;47.990;-1.608;2022-10-31T02:36:12;10.73;;;1.65;;
49378;SDS011;35254;47.990;-1.608;2022-10-31T02:47:14;11.43;;;0.88;;
49378;SDS011;35254;47.990;-1.608;2022-10-31T02:52:35;5.35;;;1.60;;
49378;SDS011;35254;47.990;-1.608;2022-10-31T02:55:41;6.78;;;0.90;;
49378;SDS011;35254;47.990;-1.608;2022-10-31T03:00:27;13.13;;;0.90;;
49378;SDS011;35254;47.990;-1.608;2022-10-31T03:10:58;6.97;;;0.70;;
49378;SDS011;35254;47.990;-1.608;2022-10-31T03:19:28;4.03;;;0.70;;
49378;SDS011;35254;47.990;-1.608;2022-10-31T03:21:50;6.72;;;0.73;;
49378;SDS011;35254;47.990;-1.608;2022-10-31T03:24:24;6.50;;;0.60;;
49378;SDS011;35254;47.990;-1.608;2022-10-31T03:26:54;4.43;;;0.50;;
49378;SDS011;35254;47.990;-1.608;2022-10-31T03:29:23;3.83;;;0.80;;
49378;SDS011;35254;47.990;-1.608;2022-10-31T03:32:00;8.55;;;0.55;;
49378;SDS011;35254;47.990;-1.608;2022-10-31T03:34:47;2.95;;;0.40;;
49378;SDS011;35254;47.990;-1.608;2022-10-31T03:37:16;4.80;;;0.38;;
49378;SDS011;35254;47.990;-1.608;2022-10-31T03:39:44;8.00;;;0.90;;
49378;SDS011;35254;47.990;-1.608;2022-10-31T03:42:14;1.65;;;0.50;;
49378;SDS011;35254;47.990;-1.608;2022-10-31T03:44:45;3.85;;;0.50;;
49378;SDS011;35254;47.990;-1.608;2022-10-31T03:47:15;5.78;;;0.68;;
49378;SDS011;35254;47.990;-1.608;2022-10-31T03:49:41;0.85;;;0.47;;
49378;SDS011;35254;47.990;-1.608;2022-10-31T03:52:19;2.80;;;0.60;;
49378;SDS011;35254;47.990;-1.608;2022-10-31T03:55:07;4.47;;;1.65;;
49378;SDS011;35254;47.990;-1.608;2022-10-31T03:57:39;2.65;;;0.50;;
49378;SDS011;35254;47.990;-1.608;2022-10-31T04:00:18;4.78;;;0.38;;
49378;SDS011;35254;47.990;-1.608;2022-10-31T04:02:45;2.47;;;0.52;;
49378;SDS011;35254;47.990;-1.608;2022-10-31T04:05:22;2.20;;;0.40;;
49378;SDS011;35254;47.990;-1.608;2022-10-31T04:07:49;4.57;;;0.90;;
49378;SDS011;35254;47.990;-1.608;2022-10-31T04:10:18;6.85;;;0.45;;
49378;SDS011;35254;47.990;-1.608;2022-10-31T04:12:46;1.05;;;0.70;;
49378;SDS011;35254;47.990;-1.608;2022-10-31T04:15:17;5.97;;;0.57;;
49378;SDS011;35254;47.990;-1.608;2022-10-31T04:17:44;0.50;;;0.40;;
49378;SDS011;35254;47.990;-1.608;2022-10-31T04:20:15;0.90;;;0.40;;
49378;SDS011;35254;47.990;-1.608;2022-10-31T04:22:41;3.40;;;0.60;;
49378;SDS011;35254;47.990;-1.608;2022-10-31T04:25:07;1.95;;;0.52;;
49378;SDS011;35254;47.990;-1.608;2022-10-31T04:27:33;0.65;;;0.35;;
49378;SDS011;35254;47.990;-1.608;2022-10-31T04:29:59;8.48;;;1.00;;
49378;SDS011;35254;47.990;-1.608;2022-10-31T04:32:25;1.20;;;0.38;;
49378;SDS011;35254;47.990;-1.608;2022-10-31T04:34:51;1.70;;;0.30;;
49378;SDS011;35254;47.990;-1.608;2022-10-31T04:37:16;4.03;;;0.28;;
49378;SDS011;35254;47.990;-1.608;2022-10-31T04:39:42;1.75;;;0.40;;
49378;SDS011;35254;47.990;-1.608;2022-10-31T04:42:07;2.67;;;0.20;;
49378;SDS011;35254;47.990;-1.608;2022-10-31T04:44:33;0.63;;;0.60;;
49378;SDS011;35254;47.990;-1.608;2022-10-31T04:46:59;0.20;;;0.20;;
49378;SDS011;35254;47.990;-1.608;2022-10-31T04:49:24;2.28;;;0.50;;
49378;SDS011;35254;47.990;-1.608;2022-10-31T04:51:50;4.22;;;0.77;;
49378;SDS011;35254;47.990;-1.608;2022-10-31T04:54:15;4.13;;;0.32;;
49378;SDS011;35254;47.990;-1.608;2022-10-31T04:56:41;1.13;;;0.43;;
49378;SDS011;35254;47.990;-1.608;2022-10-31T04:59:07;1.42;;;0.50;;
49378;SDS011;35254;47.990;-1.608;2022-10-31T05:01:32;0.77;;;0.30;;
49378;SDS011;35254;47.990;-1.608;2022-10-31T05:03:58;0.60;;;0.35;;
49378;SDS011;35254;47.990;-1.608;2022-10-31T05:06:23;2.78;;;0.30;;
49378;SDS011;35254;47.990;-1.608;2022-10-31T05:08:49;3.97;;;0.40;;
49378;SDS011;35254;47.990;-1.608;2022-10-31T05:11:15;0.73;;;0.40;;
49378;SDS011;35254;47.990;-1.608;2022-10-31T05:13:41;0.52;;;0.28;;
49378;SDS011;35254;47.990;-1.608;2022-10-31T05:16:06;3.13;;;0.40;;
49378;SDS011;35254;47.990;-1.608;2022-10-31T05:18:32;0.77;;;0.47;;
49378;SDS011;35254;47.990;-1.608;2022-10-31T05:20:57;1.33;;;0.30;;
49378;SDS011;35254;47.990;-1.608;2022-10-31T05:23:23;2.00;;;0.45;;
49378;SDS011;35254;47.990;-1.608;2022-10-31T05:25:48;2.42;;;0.50;;
49378;SDS011;35254;47.990;-1.608;2022-10-31T05:28:14;3.80;;;0.60;;
49378;SDS011;35254;47.990;-1.608;2022-10-31T05:30:40;0.80;;;0.20;;
49378;SDS011;35254;47.990;-1.608;2022-10-31T05:33:05;0.95;;;0.32;;
49378;SDS011;35254;47.990;-1.608;2022-10-31T05:35:31;0.40;;;0.30;;
49378;SDS011;35254;47.990;-1.608;2022-10-31T05:37:58;1.35;;;0.30;;
49378;SDS011;35254;47.990;-1.608;2022-10-31T05:40:24;0.25;;;0.25;;
49378;SDS011;35254;47.990;-1.608;2022-10-31T05:42:51;1.17;;;0.32;;
49378;SDS011;35254;47.990;-1.608;2022-10-31T05:45:18;0.40;;;0.30;;
49378;SDS011;35254;47.990;-1.608;2022-10-31T05:47:51;2.67;;;0.25;;
49378;SDS011;35254;47.990;-1.608;2022-10-31T05:50:21;2.65;;;0.60;;
49378;SDS011;35254;47.990;-1.608;2022-10-31T05:52:53;0.93;;;0.30;;
49378;SDS011;35254;47.990;-1.608;2022-10-31T05:55:23;2.35;;;0.38;;
49378;SDS011;35254;47.990;-1.608;2022-10-31T05:57:50;1.25;;;0.30;;
49378;SDS011;35254;47.990;-1.608;2022-10-31T06:00:17;1.88;;;0.20;;
49378;SDS011;35254;47.990;-1.608;2022-10-31T06:02:43;1.65;;;0.20;;
49378;SDS011;35254;47.990;-1.608;2022-10-31T06:05:09;0.20;;;0.20;;
49378;SDS011;35254;47.990;-1.608;2022-10-31T06:07:34;2.78;;;0.40;;
49378;SDS011;35254;47.990;-1.608;2022-10-31T06:10:01;0.98;;;0.25;;
49378;SDS011;35254;47.990;-1.608;2022-10-31T06:12:29;1.42;;;0.20;;
49378;SDS011;35254;47.990;-1.608;2022-10-31T06:14:55;1.17;;;0.70;;
49378;SDS011;35254;47.990;-1.608;2022-10-31T06:17:21;0.88;;;0.22;;
49378;SDS011;35254;47.990;-1.608;2022-10-31T06:19:46;1.30;;;0.17;;
49378;SDS011;35254;47.990;-1.608;2022-10-31T06:22:12;0.15;;;0.15;;
49378;SDS011;35254;47.990;-1.608;2022-10-31T06:24:38;1.38;;;0.25;;
49378;SDS011;35254;47.990;-1.608;2022-10-31T06:27:04;0.10;;;0.10;;
49378;SDS011;35254;47.990;-1.608;2022-10-31T06:29:30;0.52;;;0.40;;
49378;SDS011;35254;47.990;-1.608;2022-10-31T06:31:55;0.20;;;0.20;;
49378;SDS011;35254;47.990;-1.608;2022-10-31T06:34:21;0.55;;;0.30;;
49378;SDS011;35254;47.990;-1.608;2022-10-31T06:36:47;0.38;;;0.20;;
49378;SDS011;35254;47.990;-1.608;2022-10-31T06:39:13;2.60;;;0.28;;
49378;SDS011;35254;47.990;-1.608;2022-10-31T06:41:39;2.38;;;0.20;;
49378;SDS011;35254;47.990;-1.608;2022-10-31T06:44:06;1.65;;;0.35;;
49378;SDS011;35254;47.990;-1.608;2022-10-31T06:46:32;2.05;;;0.45;;
49378;SDS011;35254;47.990;-1.608;2022-10-31T06:48:58;2.38;;;0.60;;
49378;SDS011;35254;47.990;-1.608;2022-10-31T06:51:23;0.90;;;0.40;;
49378;SDS011;35254;47.990;-1.608;2022-10-31T06:53:49;3.25;;;0.40;;
49378;SDS011;35254;47.990;-1.608;2022-10-31T06:56:15;10.77;;;0.50;;
49378;SDS011;35254;47.990;-1.608;2022-10-31T06:58:40;5.50;;;1.02;;
49378;SDS011;35254;47.990;-1.608;2022-10-31T07:01:06;1.15;;;0.60;;
49378;SDS011;35254;47.990;-1.608;2022-10-31T07:03:31;1.52;;;0.98;;
49378;SDS011;35254;47.990;-1.608;2022-10-31T07:05:57;0.75;;;0.40;;
49378;SDS011;35254;47.990;-1.608;2022-10-31T07:08:23;2.28;;;0.35;;
49378;SDS011;35254;47.990;-1.608;2022-10-31T07:10:54;4.20;;;0.40;;
49378;SDS011;35254;47.990;-1.608;2022-10-31T07:13:21;2.28;;;0.40;;
49378;SDS011;35254;47.990;-1.608;2022-10-31T07:15:50;0.20;;;0.20;;
49378;SDS011;35254;47.990;-1.608;2022-10-31T07:18:17;0.40;;;0.40;;
49378;SDS011;35254;47.990;-1.608;2022-10-31T07:20:42;1.65;;;0.32;;
49378;SDS011;35254;47.990;-1.608;2022-10-31T07:23:09;2.95;;;0.30;;
49378;SDS011;35254;47.990;-1.608;2022-10-31T07:25:35;0.77;;;0.30;;
49378;SDS011;35254;47.990;-1.608;2022-10-31T07:28:02;1.92;;;0.82;;
49378;SDS011;35254;47.990;-1.608;2022-10-31T07:30:27;3.50;;;1.02;;
49378;SDS011;35254;47.990;-1.608;2022-10-31T07:32:53;5.85;;;0.60;;
49378;SDS011;35254;47.990;-1.608;2022-10-31T07:35:23;3.33;;;0.47;;
49378;SDS011;35254;47.990;-1.608;2022-10-31T07:37:50;3.13;;;0.60;;
49378;SDS011;35254;47.990;-1.608;2022-10-31T07:40:16;1.45;;;0.82;;
49378;SDS011;35254;47.990;-1.608;2022-10-31T07:42:44;4.03;;;0.68;;
49378;SDS011;35254;47.990;-1.608;2022-10-31T07:45:12;2.17;;;0.65;;
49378;SDS011;35254;47.990;-1.608;2022-10-31T07:47:39;1.58;;;0.50;;
49378;SDS011;35254;47.990;-1.608;2022-10-31T07:50:07;4.97;;;0.82;;
49378;SDS011;35254;47.990;-1.608;2022-10-31T07:52:33;6.53;;;1.25;;
49378;SDS011;35254;47.990;-1.608;2022-10-31T07:54:59;3.75;;;0.85;;
49378;SDS011;35254;47.990;-1.608;2022-10-31T07:57:24;5.75;;;1.02;;
49378;SDS011;35254;47.990;-1.608;2022-10-31T07:59:50;2.60;;;0.90;;
49378;SDS011;35254;47.990;-1.608;2022-10-31T08:02:16;9.02;;;0.90;;
49378;SDS011;35254;47.990;-1.608;2022-10-31T08:04:41;4.95;;;0.90;;
49378;SDS011;35254;47.990;-1.608;2022-10-31T08:07:07;9.07;;;0.90;;
49378;SDS011;35254;47.990;-1.608;2022-10-31T08:09:32;8.55;;;0.95;;
49378;SDS011;35254;47.990;-1.608;2022-10-31T08:11:58;5.70;;;0.82;;
49378;SDS011;35254;47.990;-1.608;2022-10-31T08:14:24;1.02;;;0.60;;
49378;SDS011;35254;47.990;-1.608;2022-10-31T08:16:49;1.67;;;0.63;;
49378;SDS011;35254;47.990;-1.608;2022-10-31T08:19:15;0.95;;;0.90;;
49378;SDS011;35254;47.990;-1.608;2022-10-31T08:21:41;1.05;;;0.70;;
49378;SDS011;35254;47.990;-1.608;2022-10-31T08:24:06;7.65;;;0.90;;
49378;SDS011;35254;47.990;-1.608;2022-10-31T08:26:32;2.15;;;0.75;;
49378;SDS011;35254;47.990;-1.608;2022-10-31T08:28:57;1.42;;;0.80;;
49378;SDS011;35254;47.990;-1.608;2022-10-31T08:31:23;2.42;;;0.70;;
49378;SDS011;35254;47.990;-1.608;2022-10-31T08:33:52;5.78;;;0.93;;
49378;SDS011;35254;47.990;-1.608;2022-10-31T08:36:18;4.63;;;1.10;;
49378;SDS011;35254;47.990;-1.608;2022-10-31T08:38:44;5.63;;;1.15;;
49378;SDS011;35254;47.990;-1.608;2022-10-31T08:41:11;2.05;;;0.55;;
49378;SDS011;35254;47.990;-1.608;2022-10-31T08:43:37;5.63;;;0.80;;
49378;SDS011;35254;47.990;-1.608;2022-10-31T08:46:02;2.08;;;0.60;;
49378;SDS011;35254;47.990;-1.608;2022-10-31T08:48:28;1.33;;;0.60;;
49378;SDS011;35254;47.990;-1.608;2022-10-31T08:50:55;1.40;;;0.60;;
49378;SDS011;35254;47.990;-1.608;2022-10-31T08:53:23;2.03;;;0.90;;
49378;SDS011;35254;47.990;-1.608;2022-10-31T08:55:49;2.10;;;0.77;;
49378;SDS011;35254;47.990;-1.608;2022-10-31T08:58:15;1.20;;;0.57;;
49378;SDS011;35254;47.990;-1.608;2022-10-31T09:00:42;1.58;;;0.60;;
49378;SDS011;35254;47.990;-1.608;2022-10-31T09:03:10;3.97;;;1.42;;
49378;SDS011;35254;47.990;-1.608;2022-10-31T09:05:40;4.72;;;0.73;;
49378;SDS011;35254;47.990;-1.608;2022-10-31T09:08:07;7.60;;;2.47;;
49378;SDS011;35254;47.990;-1.608;2022-10-31T09:10:33;1.92;;;1.13;;
49378;SDS011;35254;47.990;-1.608;2022-10-31T09:13:11;12.18;;;1.23;;
49378;SDS011;35254;47.990;-1.608;2022-10-31T09:15:39;6.15;;;1.65;;
49378;SDS011;35254;47.990;-1.608;2022-10-31T09:18:07;5.15;;;1.35;;
49378;SDS011;35254;47.990;-1.608;2022-10-31T09:20:34;3.58;;;1.02;;
49378;SDS011;35254;47.990;-1.608;2022-10-31T09:23:11;3.42;;;1.70;;
49378;SDS011;35254;47.990;-1.608;2022-10-31T09:25:41;3.55;;;0.90;;
49378;SDS011;35254;47.990;-1.608;2022-10-31T09:28:09;4.60;;;0.90;;
49378;SDS011;35254;47.990;-1.608;2022-10-31T09:30:36;3.90;;;1.20;;
49378;SDS011;35254;47.990;-1.608;2022-10-31T09:33:08;3.47;;;1.30;;
49378;SDS011;35254;47.990;-1.608;2022-10-31T09:35:35;5.93;;;1.40;;
49378;SDS011;35254;47.990;-1.608;2022-10-31T09:38:02;3.72;;;0.85;;
49378;SDS011;35254;47.990;-1.608;2022-10-31T09:51:18;5.07;;;0.95;;
49378;SDS011;35254;47.990;-1.608;2022-10-31T09:56:39;6.50;;;1.15;;
49378;SDS011;35254;47.990;-1.608;2022-10-31T09:59:05;4.78;;;1.17;;
49378;SDS011;35254;47.990;-1.608;2022-10-31T10:01:57;4.20;;;0.98;;
49378;SDS011;35254;47.990;-1.608;2022-10-31T10:06:51;0.88;;;0.80;;
49378;SDS011;35254;47.990;-1.608;2022-10-31T10:09:19;3.22;;;1.13;;
49378;SDS011;35254;47.990;-1.608;2022-10-31T10:17:21;1.20;;;0.85;;
49378;SDS011;35254;47.990;-1.608;2022-10-31T10:20:20;3.10;;;1.33;;
49378;SDS011;35254;47.990;-1.608;2022-10-31T10:23:02;1.42;;;1.27;;
49378;SDS011;35254;47.990;-1.608;2022-10-31T10:26:02;4.05;;;1.52;;
49378;SDS011;35254;47.990;-1.608;2022-10-31T10:28:44;2.53;;;1.30;;
49378;SDS011;35254;47.990;-1.608;2022-10-31T10:31:16;5.20;;;1.77;;
49378;SDS011;35254;47.990;-1.608;2022-10-31T10:36:39;6.23;;;1.50;;
49378;SDS011;35254;47.990;-1.608;2022-10-31T10:39:09;8.50;;;2.22;;
49378;SDS011;35254;47.990;-1.608;2022-10-31T10:41:38;2.15;;;1.23;;
49378;SDS011;35254;47.990;-1.608;2022-10-31T10:44:08;4.05;;;1.45;;
49378;SDS011;35254;47.990;-1.608;2022-10-31T10:46:40;3.97;;;1.55;;
49378;SDS011;35254;47.990;-1.608;2022-10-31T11:00:21;5.28;;;1.23;;
49378;SDS011;35254;47.990;-1.608;2022-10-31T11:02:50;3.83;;;1.50;;
49378;SDS011;35254;47.990;-1.608;2022-10-31T11:05:36;5.22;;;2.30;;
49378;SDS011;35254;47.990;-1.608;2022-10-31T11:08:27;7.00;;;2.78;;
49378;SDS011;35254;47.990;-1.608;2022-10-31T11:13:52;5.85;;;2.97;;
49378;SDS011;35254;47.990;-1.608;2022-10-31T11:19:06;8.95;;;3.05;;
49378;SDS011;35254;47.990;-1.608;2022-10-31T11:21:42;5.15;;;2.85;;
49378;SDS011;35254;47.990;-1.608;2022-10-31T11:26:36;7.85;;;3.38;;
49378;SDS011;35254;47.990;-1.608;2022-10-31T11:29:03;8.05;;;3.80;;
49378;SDS011;35254;47.990;-1.608;2022-10-31T11:31:30;6.85;;;3.60;;
49378;SDS011;35254;47.990;-1.608;2022-10-31T11:33:59;13.50;;;3.85;;
49378;SDS011;35254;47.990;-1.608;2022-10-31T11:36:29;7.00;;;3.55;;
49378;SDS011;35254;47.990;-1.608;2022-10-31T11:39:01;7.30;;;3.60;;
49378;SDS011;35254;47.990;-1.608;2022-10-31T11:41:32;8.38;;;3.30;;
49378;SDS011;35254;47.990;-1.608;2022-10-31T11:49:25;10.70;;;3.85;;
49378;SDS011;35254;47.990;-1.608;2022-10-31T11:52:13;6.13;;;4.00;;
49378;SDS011;35254;47.990;-1.608;2022-10-31T11:54:44;16.52;;;4.38;;
49378;SDS011;35254;47.990;-1.608;2022-10-31T11:59:55;8.80;;;3.78;;
49378;SDS011;35254;47.990;-1.608;2022-10-31T12:02:23;5.03;;;4.25;;
49378;SDS011;35254;47.990;-1.608;2022-10-31T12:04:52;8.52;;;4.93;;
49378;SDS011;35254;47.990;-1.608;2022-10-31T12:07:22;7.80;;;3.92;;
49378;SDS011;35254;47.990;-1.608;2022-10-31T12:09:49;10.60;;;4.57;;
49378;SDS011;35254;47.990;-1.608;2022-10-31T12:21:21;5.30;;;3.78;;
49378;SDS011;35254;47.990;-1.608;2022-10-31T12:26:22;7.72;;;3.35;;
49378;SDS011;35254;47.990;-1.608;2022-10-31T12:29:26;7.05;;;2.72;;
49378;SDS011;35254;47.990;-1.608;2022-10-31T12:50:47;15.20;;;4.40;;
49378;SDS011;35254;47.990;-1.608;2022-10-31T12:56:08;12.10;;;3.58;;
49378;SDS011;35254;47.990;-1.608;2022-10-31T12:58:43;11.10;;;3.38;;
49378;SDS011;35254;47.990;-1.608;2022-10-31T13:01:21;5.93;;;3.72;;
49378;SDS011;35254;47.990;-1.608;2022-10-31T13:03:57;7.97;;;3.65;;
49378;SDS011;35254;47.990;-1.608;2022-10-31T13:06:24;11.00;;;3.47;;
49378;SDS011;35254;47.990;-1.608;2022-10-31T13:08:58;12.63;;;2.97;;
49378;SDS011;35254;47.990;-1.608;2022-10-31T13:14:11;10.88;;;3.58;;
49378;SDS011;35254;47.990;-1.608;2022-10-31T13:16:51;10.75;;;3.83;;
49378;SDS011;35254;47.990;-1.608;2022-10-31T13:19:30;6.50;;;3.25;;
49378;SDS011;35254;47.990;-1.608;2022-10-31T13:27:27;9.07;;;3.15;;
49378;SDS011;35254;47.990;-1.608;2022-10-31T13:30:04;12.32;;;3.95;;
49378;SDS011;35254;47.990;-1.608;2022-10-31T13:32:58;8.75;;;3.33;;
49378;SDS011;35254;47.990;-1.608;2022-10-31T13:38:48;11.40;;;4.35;;
49378;SDS011;35254;47.990;-1.608;2022-10-31T13:46:41;7.65;;;3.92;;
49378;SDS011;35254;47.990;-1.608;2022-10-31T13:49:21;8.00;;;4.50;;
49378;SDS011;35254;47.990;-1.608;2022-10-31T13:51:51;9.27;;;4.47;;
49378;SDS011;35254;47.990;-1.608;2022-10-31T13:56:49;8.80;;;4.28;;
49378;SDS011;35254;47.990;-1.608;2022-10-31T14:01:48;14.70;;;3.90;;
49378;SDS011;35254;47.990;-1.608;2022-10-31T14:04:23;8.90;;;4.03;;
49378;SDS011;35254;47.990;-1.608;2022-10-31T14:09:33;8.57;;;3.80;;
49378;SDS011;35254;47.990;-1.608;2022-10-31T14:12:03;5.72;;;3.58;;
49378;SDS011;35254;47.990;-1.608;2022-10-31T14:14:51;8.30;;;4.03;;
49378;SDS011;35254;47.990;-1.608;2022-10-31T14:17:24;6.30;;;4.57;;
49378;SDS011;35254;47.990;-1.608;2022-10-31T14:22:35;8.23;;;3.47;;
49378;SDS011;35254;47.990;-1.608;2022-10-31T14:25:49;10.13;;;4.03;;
49378;SDS011;35254;47.990;-1.608;2022-10-31T14:27:50;7.18;;;4.18;;
49378;SDS011;35254;47.990;-1.608;2022-10-31T14:30:18;11.18;;;4.63;;
49378;SDS011;35254;47.990;-1.608;2022-10-31T14:32:54;11.75;;;3.40;;
49378;SDS011;35254;47.990;-1.608;2022-10-31T14:35:45;12.80;;;3.70;;
49378;SDS011;35254;47.990;-1.608;2022-10-31T14:44:31;9.25;;;4.45;;
49378;SDS011;35254;47.990;-1.608;2022-10-31T14:49:35;7.40;;;4.00;;
49378;SDS011;35254;47.990;-1.608;2022-10-31T14:52:29;7.03;;;3.58;;
49378;SDS011;35254;47.990;-1.608;2022-10-31T14:54:56;8.57;;;4.20;;
49378;SDS011;35254;47.990;-1.608;2022-10-31T14:57:29;6.15;;;3.60;;
49378;SDS011;35254;47.990;-1.608;2022-10-31T15:00:03;6.22;;;3.58;;
49378;SDS011;35254;47.990;-1.608;2022-10-31T15:02:36;6.80;;;3.67;;
49378;SDS011;35254;47.990;-1.608;2022-10-31T15:05:13;11.13;;;4.40;;
49378;SDS011;35254;47.990;-1.608;2022-10-31T15:07:52;11.20;;;3.67;;
49378;SDS011;35254;47.990;-1.608;2022-10-31T15:10:21;9.85;;;4.40;;
49378;SDS011;35254;47.990;-1.608;2022-10-31T15:12:51;6.18;;;3.92;;
49378;SDS011;35254;47.990;-1.608;2022-10-31T15:15:22;8.68;;;4.88;;
49378;SDS011;35254;47.990;-1.608;2022-10-31T15:17:52;7.03;;;4.68;;
49378;SDS011;35254;47.990;-1.608;2022-10-31T15:20:23;9.73;;;3.90;;
49378;SDS011;35254;47.990;-1.608;2022-10-31T15:22:56;7.85;;;3.67;;
49378;SDS011;35254;47.990;-1.608;2022-10-31T15:25:24;5.85;;;3.58;;
49378;SDS011;35254;47.990;-1.608;2022-10-31T15:27:58;8.48;;;3.88;;
49378;SDS011;35254;47.990;-1.608;2022-10-31T15:30:26;4.85;;;3.50;;
49378;SDS011;35254;47.990;-1.608;2022-10-31T15:35:22;5.63;;;4.00;;
49378;SDS011;35254;47.990;-1.608;2022-10-31T15:37:51;9.82;;;3.28;;
49378;SDS011;35254;47.990;-1.608;2022-10-31T15:40:18;10.27;;;3.97;;
49378;SDS011;35254;47.990;-1.608;2022-10-31T15:42:49;5.20;;;3.75;;
49378;SDS011;35254;47.990;-1.608;2022-10-31T15:45:24;7.25;;;3.58;;
49378;SDS011;35254;47.990;-1.608;2022-10-31T15:47:59;8.30;;;4.15;;
49378;SDS011;35254;47.990;-1.608;2022-10-31T15:50:31;12.13;;;4.15;;
49378;SDS011;35254;47.990;-1.608;2022-10-31T15:53:05;6.30;;;3.42;;
49378;SDS011;35254;47.990;-1.608;2022-10-31T15:55:54;5.60;;;3.35;;
49378;SDS011;35254;47.990;-1.608;2022-10-31T15:58:22;10.73;;;4.40;;
49378;SDS011;35254;47.990;-1.608;2022-10-31T16:01:34;4.80;;;3.42;;
49378;SDS011;35254;47.990;-1.608;2022-10-31T16:03:56;5.45;;;3.00;;
49378;SDS011;35254;47.990;-1.608;2022-10-31T16:06:22;9.35;;;3.42;;
49378;SDS011;35254;47.990;-1.608;2022-10-31T16:08:48;11.50;;;3.22;;
49378;SDS011;35254;47.990;-1.608;2022-10-31T16:11:23;16.13;;;3.70;;
49378;SDS011;35254;47.990;-1.608;2022-10-31T16:16:31;8.95;;;4.00;;
49378;SDS011;35254;47.990;-1.608;2022-10-31T16:18:59;12.50;;;3.75;;
49378;SDS011;35254;47.990;-1.608;2022-10-31T16:21:36;7.43;;;2.67;;
49378;SDS011;35254;47.990;-1.608;2022-10-31T16:24:04;9.43;;;3.25;;
49378;SDS011;35254;47.990;-1.608;2022-10-31T16:26:50;9.38;;;3.53;;
49378;SDS011;35254;47.990;-1.608;2022-10-31T16:29:25;7.55;;;4.30;;
49378;SDS011;35254;47.990;-1.608;2022-10-31T16:31:51;7.03;;;3.15;;
49378;SDS011;35254;47.990;-1.608;2022-10-31T16:34:20;10.30;;;3.63;;
49378;SDS011;35254;47.990;-1.608;2022-10-31T16:36:47;7.82;;;3.65;;
49378;SDS011;35254;47.990;-1.608;2022-10-31T16:39:13;6.28;;;2.95;;
49378;SDS011;35254;47.990;-1.608;2022-10-31T16:41:40;9.45;;;4.05;;
49378;SDS011;35254;47.990;-1.608;2022-10-31T16:44:18;7.60;;;3.83;;
49378;SDS011;35254;47.990;-1.608;2022-10-31T16:46:44;8.48;;;3.47;;
49378;SDS011;35254;47.990;-1.608;2022-10-31T16:49:10;8.98;;;3.40;;
49378;SDS011;35254;47.990;-1.608;2022-10-31T16:51:36;5.72;;;2.90;;
49378;SDS011;35254;47.990;-1.608;2022-10-31T16:54:01;8.40;;;2.97;;
49378;SDS011;35254;47.990;-1.608;2022-10-31T16:56:28;4.63;;;2.60;;
49378;SDS011;35254;47.990;-1.608;2022-10-31T16:58:56;10.65;;;3.28;;
49378;SDS011;35254;47.990;-1.608;2022-10-31T17:01:23;6.95;;;3.00;;
49378;SDS011;35254;47.990;-1.608;2022-10-31T17:03:49;10.05;;;3.28;;
49378;SDS011;35254;47.990;-1.608;2022-10-31T17:06:14;5.30;;;2.63;;
49378;SDS011;35254;47.990;-1.608;2022-10-31T17:08:40;15.43;;;3.08;;
49378;SDS011;35254;47.990;-1.608;2022-10-31T17:11:07;14.25;;;3.38;;
49378;SDS011;35254;47.990;-1.608;2022-10-31T17:13:37;8.68;;;3.65;;
49378;SDS011;35254;47.990;-1.608;2022-10-31T17:16:03;9.52;;;3.53;;
49378;SDS011;35254;47.990;-1.608;2022-10-31T17:18:29;11.48;;;3.25;;
49378;SDS011;35254;47.990;-1.608;2022-10-31T17:20:59;7.25;;;2.72;;
49378;SDS011;35254;47.990;-1.608;2022-10-31T17:23:26;9.10;;;3.22;;
49378;SDS011;35254;47.990;-1.608;2022-10-31T17:25:53;11.90;;;3.20;;
49378;SDS011;35254;47.990;-1.608;2022-10-31T17:28:19;11.13;;;2.90;;
49378;SDS011;35254;47.990;-1.608;2022-10-31T17:30:44;7.65;;;2.58;;
49378;SDS011;35254;47.990;-1.608;2022-10-31T17:33:14;7.50;;;3.10;;
49378;SDS011;35254;47.990;-1.608;2022-10-31T17:38:07;4.18;;;2.25;;